Time;durP1;ratioP1;P1;durP2;ratioP2;P2;SDS_P1;SDS_P2;PMS_P1;PMS_P2;Temp;Humidity;BMP_temperature;BMP_pressure;BME280_temperature;BME280_humidity;BME280_pressure;Samples;Min_cycle;Max_cycle;Signal;HPM_P1;HPM_P2
2021/10/10 00:01:27;;;;;;;15.00;8.30;;;8.50;1.00;;;;;;5011661;28;20220;-62
2021/10/10 00:03:54;;;;;;;11.10;7.50;;;8.50;1.00;;;;;;5011513;28;20260;-64
2021/10/10 00:06:21;;;;;;;11.07;8.00;;;8.50;1.00;;;;;;5011418;28;20264;-62
2021/10/10 00:08:49;;;;;;;11.93;7.70;;;8.40;1.00;;;;;;5011934;28;20216;-62
2021/10/10 00:11:15;;;;;;;12.07;7.73;;;8.40;1.00;;;;;;5015307;28;20294;-62
2021/10/10 00:13:42;;;;;;;10.37;8.27;;;8.40;1.00;;;;;;5015148;28;20287;-62
2021/10/10 00:16:09;;;;;;;12.50;8.50;;;8.30;1.00;;;;;;5014490;28;20236;-62
2021/10/10 00:18:36;;;;;;;10.33;7.57;;;8.30;1.00;;;;;;5014893;28;20260;-62
2021/10/10 00:21:03;;;;;;;11.13;7.73;;;8.30;1.00;;;;;;5014537;28;20263;-62
2021/10/10 00:23:29;;;;;;;11.80;8.17;;;8.30;1.00;;;;;;5014826;28;20209;-62
2021/10/10 00:25:57;;;;;;;13.17;8.70;;;8.30;1.00;;;;;;5014546;28;20215;-62
2021/10/10 00:28:24;;;;;;;13.70;8.87;;;8.30;1.00;;;;;;5014771;28;20252;-62
2021/10/10 00:30:51;;;;;;;11.60;7.80;;;8.20;3.40;;;;;;5014663;28;20769;-62
2021/10/10 00:33:17;;;;;;;13.10;8.50;;;8.20;51.30;;;;;;5014734;28;20238;-61
2021/10/10 00:35:44;;;;;;;15.00;8.60;;;8.10;99.90;;;;;;5014225;28;20225;-61
2021/10/10 00:38:10;;;;;;;15.43;9.03;;;8.10;99.90;;;;;;5014265;28;20213;-62
2021/10/10 00:40:37;;;;;;;16.07;9.13;;;8.10;99.90;;;;;;5014649;28;20230;-62
2021/10/10 00:43:05;;;;;;;14.33;8.73;;;8.10;99.90;;;;;;5014492;28;20244;-62
2021/10/10 00:45:33;;;;;;;17.20;9.17;;;8.00;99.90;;;;;;5014298;28;20261;-62
2021/10/10 00:48:00;;;;;;;13.27;8.63;;;8.00;99.90;;;;;;5014480;28;20205;-62
2021/10/10 00:50:27;;;;;;;12.93;9.37;;;8.00;1.00;;;;;;5014110;28;20280;-61
2021/10/10 00:52:54;;;;;;;14.37;8.93;;;7.90;1.00;;;;;;5014743;28;20261;-61
2021/10/10 00:55:21;;;;;;;11.10;8.67;;;7.90;1.00;;;;;;5014279;28;20286;-61
2021/10/10 00:57:50;;;;;;;11.90;8.43;;;7.80;68.60;;;;;;5014334;28;20743;-62
2021/10/10 01:00:20;;;;;;;13.00;9.03;;;7.80;99.90;;;;;;5014014;28;20234;-62
2021/10/10 01:02:50;;;;;;;11.37;9.07;;;7.80;99.90;;;;;;5014034;28;20664;-62
2021/10/10 01:05:16;;;;;;;12.37;8.67;;;7.70;99.90;;;;;;5013885;28;20257;-62
2021/10/10 01:07:45;;;;;;;12.03;9.03;;;7.70;99.90;;;;;;5014067;28;20207;-62
2021/10/10 01:10:12;;;;;;;13.87;8.90;;;7.70;99.90;;;;;;5013899;28;20239;-62
2021/10/10 01:12:41;;;;;;;14.17;9.73;;;7.60;1.00;;;;;;5013868;28;20204;-62
2021/10/10 01:15:09;;;;;;;12.47;9.47;;;7.60;1.00;;;;;;5013506;28;20686;-62
2021/10/10 01:17:37;;;;;;;12.20;9.50;;;7.60;1.00;;;;;;5013623;28;20262;-62
2021/10/10 01:20:06;;;;;;;11.20;8.40;;;7.60;1.00;;;;;;5013774;28;20239;-62
2021/10/10 01:22:35;;;;;;;14.73;9.50;;;7.60;1.00;;;;;;5013968;28;20620;-61
2021/10/10 01:25:01;;;;;;;11.23;9.17;;;7.60;74.00;;;;;;5013416;28;20234;-62
2021/10/10 01:27:28;;;;;;;11.70;8.77;;;7.50;99.90;;;;;;5013704;28;20207;-62
2021/10/10 01:29:55;;;;;;;14.97;9.27;;;7.50;99.90;;;;;;5013630;28;20780;-62
2021/10/10 01:32:22;;;;;;;13.43;9.60;;;7.40;99.90;;;;;;5013605;28;20203;-62
2021/10/10 01:34:49;;;;;;;12.90;9.43;;;7.40;99.90;;;;;;5013395;28;20211;-62
2021/10/10 01:37:17;;;;;;;13.30;9.23;;;7.40;99.90;;;;;;5013589;28;20697;-62
2021/10/10 01:39:45;;;;;;;12.73;8.97;;;7.30;99.90;;;;;;5013644;28;20231;-62
2021/10/10 01:42:12;;;;;;;13.00;9.10;;;7.30;99.90;;;;;;5013419;28;20230;-61
2021/10/10 01:44:38;;;;;;;13.53;9.20;;;7.20;1.00;;;;;;5012853;28;20624;-62
2021/10/10 01:47:05;;;;;;;11.53;9.17;;;7.20;1.00;;;;;;5013065;28;20789;-62
2021/10/10 01:49:32;;;;;;;15.43;9.63;;;7.10;99.90;;;;;;5013288;28;20230;-62
2021/10/10 01:51:58;;;;;;;13.50;9.20;;;7.00;99.90;;;;;;5013385;28;20211;-62
2021/10/10 01:54:25;;;;;;;14.67;8.97;;;7.00;99.90;;;;;;5013117;28;20234;-62
2021/10/10 01:56:53;;;;;;;13.60;10.23;;;6.90;1.00;;;;;;5012778;28;20233;-62
2021/10/10 01:59:20;;;;;;;16.63;10.27;;;6.90;1.00;;;;;;5012861;28;20226;-62
2021/10/10 02:01:46;;;;;;;14.53;9.37;;;6.90;1.00;;;;;;5013178;28;20213;-61
2021/10/10 02:04:13;;;;;;;13.97;10.07;;;6.80;34.00;;;;;;5012906;28;20211;-62
2021/10/10 02:06:40;;;;;;;17.47;9.80;;;6.80;99.90;;;;;;5012545;28;20649;-62
2021/10/10 02:09:06;;;;;;;14.03;9.70;;;6.80;99.90;;;;;;5012890;28;20262;-61
2021/10/10 02:11:33;;;;;;;14.63;9.53;;;6.70;99.90;;;;;;5012973;28;20633;-62
2021/10/10 02:14:01;;;;;;;14.80;9.53;;;6.70;99.90;;;;;;5012730;28;20741;-62
2021/10/10 02:16:28;;;;;;;12.80;9.47;;;6.70;1.00;;;;;;5012543;28;20202;-61
2021/10/10 02:18:54;;;;;;;12.33;9.03;;;6.60;1.00;;;;;;5012630;28;20349;-61
2021/10/10 02:21:21;;;;;;;16.10;10.40;;;6.60;1.00;;;;;;5012447;28;20281;-62
2021/10/10 02:23:48;;;;;;;14.87;10.23;;;6.60;1.00;;;;;;5012406;28;20676;-62
2021/10/10 02:26:15;;;;;;;13.23;9.20;;;6.60;1.00;;;;;;5011978;28;20253;-62
2021/10/10 02:28:42;;;;;;;15.67;10.07;;;6.60;99.90;;;;;;5012612;28;20265;-62
2021/10/10 02:31:10;;;;;;;13.80;10.03;;;6.50;99.90;;;;;;5012064;28;20207;-62
2021/10/10 02:33:36;;;;;;;13.63;9.90;;;6.50;99.90;;;;;;5012294;28;20633;-62
2021/10/10 02:36:03;;;;;;;16.83;9.90;;;6.50;99.90;;;;;;5011833;28;20705;-65
2021/10/10 02:38:30;;;;;;;15.60;9.53;;;6.50;1.00;;;;;;5012107;28;20219;-61
2021/10/10 02:40:57;;;;;;;14.90;10.53;;;6.50;1.00;;;;;;5011926;28;20227;-61
2021/10/10 02:43:23;;;;;;;15.40;10.23;;;6.50;99.90;;;;;;5012139;28;20210;-61
2021/10/10 02:45:50;;;;;;;16.53;9.97;;;6.50;99.90;;;;;;5011838;28;20219;-62
2021/10/10 02:48:18;;;;;;;16.70;10.00;;;6.50;99.90;;;;;;5012108;28;20245;-62
2021/10/10 02:50:45;;;;;;;16.57;9.17;;;6.40;1.00;;;;;;5012152;28;20229;-62
2021/10/10 02:53:11;;;;;;;16.67;10.27;;;6.40;1.00;;;;;;5012147;28;20699;-61
2021/10/10 02:55:38;;;;;;;14.10;10.27;;;6.40;1.00;;;;;;5011612;28;20206;-62
2021/10/10 02:58:05;;;;;;;14.90;10.13;;;6.30;1.00;;;;;;5012245;28;20211;-62
2021/10/10 03:00:31;;;;;;;14.70;10.80;;;6.30;1.00;;;;;;5012079;28;20470;-60
2021/10/10 03:02:58;;;;;;;13.37;9.90;;;6.30;1.00;;;;;;5012174;28;20207;-62
2021/10/10 03:05:26;;;;;;;17.10;10.87;;;6.30;89.20;;;;;;5011784;28;20281;-62
2021/10/10 03:07:53;;;;;;;16.00;10.93;;;6.30;99.90;;;;;;5011942;28;20253;-62
2021/10/10 03:10:20;;;;;;;17.23;11.07;;;6.20;99.90;;;;;;5011851;28;20837;-62
2021/10/10 03:12:46;;;;;;;20.57;11.23;;;6.20;1.00;;;;;;5012066;28;20211;-62
2021/10/10 03:15:13;;;;;;;17.30;11.37;;;6.20;99.90;;;;;;5011872;28;20211;-62
2021/10/10 03:17:40;;;;;;;16.10;11.10;;;6.20;99.90;;;;;;5011729;28;20685;-62
2021/10/10 03:20:08;;;;;;;17.17;11.40;;;6.20;99.90;;;;;;5011703;28;20234;-61
2021/10/10 03:22:36;;;;;;;17.67;10.90;;;6.20;1.00;;;;;;5011994;28;20206;-61
2021/10/10 03:25:02;;;;;;;16.70;10.70;;;6.20;99.90;;;;;;5011676;28;20215;-61
2021/10/10 03:27:29;;;;;;;16.27;11.27;;;6.20;99.90;;;;;;5011898;28;20230;-61
2021/10/10 03:29:56;;;;;;;16.50;10.50;;;6.20;97.20;;;;;;5011699;28;20239;-61
2021/10/10 03:32:23;;;;;;;16.03;9.50;;;6.10;1.00;;;;;;5011766;28;20695;-61
2021/10/10 03:34:50;;;;;;;16.63;10.60;;;6.10;1.00;;;;;;5011444;28;20638;-61
2021/10/10 03:37:17;;;;;;;20.27;10.83;;;6.10;1.00;;;;;;5011553;28;20203;-61
2021/10/10 03:39:45;;;;;;;16.87;11.00;;;6.10;1.00;;;;;;5011830;28;20229;-61
2021/10/10 03:42:11;;;;;;;17.37;10.90;;;6.00;99.90;;;;;;5011640;28;20672;-61
2021/10/10 03:44:38;;;;;;;19.17;11.20;;;6.00;1.00;;;;;;5013476;28;20684;-61
2021/10/10 03:47:04;;;;;;;15.30;11.40;;;6.00;1.00;;;;;;5015512;28;20592;-61
2021/10/10 03:49:32;;;;;;;17.27;11.63;;;6.00;74.90;;;;;;5015273;28;20234;-61
2021/10/10 03:51:59;;;;;;;15.70;11.30;;;6.00;99.90;;;;;;5015399;28;20272;-61
2021/10/10 03:57:11;;;;;;;16.10;11.80;;;5.90;1.00;;;;;;5015355;28;20226;-62
2021/10/10 03:59:38;;;;;;;18.00;12.57;;;5.90;63.90;;;;;;5015304;28;20284;-62
2021/10/10 04:02:06;;;;;;;17.53;12.07;;;5.90;99.90;;;;;;5014948;28;20781;-62
2021/10/10 04:04:35;;;;;;;18.50;12.43;;;5.90;1.00;;;;;;5015047;28;20211;-62
2021/10/10 04:07:02;;;;;;;15.83;11.50;;;5.90;99.90;;;;;;5015112;28;20326;-62
2021/10/10 04:09:28;;;;;;;16.97;10.80;;;5.90;1.00;;;;;;5015044;28;20231;-62
2021/10/10 04:11:55;;;;;;;18.90;12.07;;;5.90;1.00;;;;;;5015159;28;20203;-61
2021/10/10 04:14:23;;;;;;;17.60;11.13;;;6.00;35.90;;;;;;5014879;28;20261;-61
2021/10/10 04:16:49;;;;;;;14.97;10.90;;;6.00;1.00;;;;;;5014508;28;20199;-62
2021/10/10 04:19:16;;;;;;;14.53;10.43;;;6.00;1.00;;;;;;5015058;28;20222;-61
2021/10/10 04:21:43;;;;;;;17.57;10.70;;;6.00;99.90;;;;;;5014950;28;20354;-62
2021/10/10 04:24:09;;;;;;;15.07;10.10;;;6.10;3.90;;;;;;5014794;28;20626;-61
2021/10/10 04:26:36;;;;;;;14.67;10.73;;;6.10;99.90;;;;;;5014360;28;20273;-61
2021/10/10 04:29:03;;;;;;;18.77;10.33;;;6.10;1.00;;;;;;5014657;28;20292;-61
2021/10/10 04:31:31;;;;;;;15.57;9.73;;;6.10;84.90;;;;;;5014475;28;20261;-62
2021/10/10 04:33:57;;;;;;;15.07;9.93;;;6.10;1.00;;;;;;5014953;28;20211;-62
2021/10/10 04:36:24;;;;;;;14.30;10.20;;;6.10;99.90;;;;;;5014094;28;20729;-62
2021/10/10 04:38:50;;;;;;;15.67;9.53;;;6.10;1.00;;;;;;5014499;28;20211;-62
2021/10/10 04:41:17;;;;;;;17.20;9.33;;;6.10;99.90;;;;;;5014408;28;20713;-62
2021/10/10 04:43:44;;;;;;;14.97;10.00;;;6.10;99.90;;;;;;5014372;28;20211;-62
2021/10/10 04:46:11;;;;;;;15.23;9.50;;;6.20;73.70;;;;;;5014187;28;20231;-61
2021/10/10 04:48:38;;;;;;;15.80;9.70;;;6.20;1.00;;;;;;5014415;28;20211;-62
2021/10/10 04:51:06;;;;;;;12.57;9.33;;;6.20;99.90;;;;;;5014525;28;20206;-61
2021/10/10 04:53:32;;;;;;;14.73;9.13;;;6.20;1.00;;;;;;5014196;28;20257;-61
2021/10/10 04:55:59;;;;;;;15.30;9.37;;;6.30;99.90;;;;;;5013590;28;20206;-62
2021/10/10 04:58:26;;;;;;;13.53;9.70;;;6.30;1.00;;;;;;5014084;28;20211;-62
2021/10/10 05:00:52;;;;;;;18.30;9.87;;;6.30;99.90;;;;;;5014329;28;20234;-61
2021/10/10 05:03:19;;;;;;;13.53;8.97;;;6.30;99.90;;;;;;5014248;28;20218;-61
2021/10/10 05:05:47;;;;;;;13.90;9.70;;;6.40;99.90;;;;;;5013671;28;20613;-61
2021/10/10 05:08:13;;;;;;;12.80;9.10;;;6.40;1.00;;;;;;5013867;28;20667;-62
2021/10/10 05:10:40;;;;;;;15.07;9.00;;;6.40;1.00;;;;;;5013836;28;20253;-62
2021/10/10 05:13:07;;;;;;;12.60;8.97;;;6.40;99.90;;;;;;5014025;28;20258;-62
2021/10/10 05:15:34;;;;;;;13.53;9.30;;;6.50;99.90;;;;;;5013683;28;20211;-62
2021/10/10 05:18:01;;;;;;;16.47;9.53;;;6.50;99.90;;;;;;5013937;28;20207;-61
2021/10/10 05:20:28;;;;;;;16.27;8.93;;;6.60;51.60;;;;;;5013545;28;20262;-61
2021/10/10 05:22:55;;;;;;;13.80;8.57;;;6.60;1.70;;;;;;5013321;28;20672;-61
2021/10/10 05:25:22;;;;;;;15.30;9.43;;;6.60;1.00;;;;;;5013374;28;20215;-61
2021/10/10 05:27:49;;;;;;;12.73;8.70;;;6.70;1.00;;;;;;5013577;28;20779;-62
2021/10/10 05:30:16;;;;;;;14.97;9.00;;;6.70;1.00;;;;;;5013605;28;20285;-62
2021/10/10 05:32:42;;;;;;;15.20;9.20;;;6.70;1.00;;;;;;5013562;28;20256;-62
2021/10/10 05:35:09;;;;;;;16.87;9.00;;;6.70;1.00;;;;;;5013371;28;20215;-62
2021/10/10 05:37:36;;;;;;;18.13;8.53;;;6.70;1.00;;;;;;5013109;28;20203;-61
2021/10/10 05:40:05;;;;;;;17.80;9.17;;;6.70;1.00;;;;;;5013107;28;20660;-61
2021/10/10 05:42:32;;;;;;;14.80;8.47;;;6.70;1.00;;;;;;5013522;28;20218;-62
2021/10/10 05:44:59;;;;;;;14.13;8.87;;;6.70;1.00;;;;;;5013049;28;20266;-61
2021/10/10 05:47:26;;;;;;;13.17;9.27;;;6.70;1.00;;;;;;5013570;28;20620;-62
2021/10/10 05:49:52;;;;;;;14.37;8.17;;;6.70;1.00;;;;;;5013205;28;20322;-61
2021/10/10 05:52:23;;;;;;;14.33;8.70;;;6.70;1.00;;;;;;5013227;28;20203;-61
2021/10/10 05:54:50;;;;;;;14.03;9.63;;;6.80;1.00;;;;;;5013037;28;21023;-62
2021/10/10 05:57:21;;;;;;;11.97;8.97;;;6.80;1.00;;;;;;5013186;28;20199;-62
2021/10/10 05:59:48;;;;;;;13.70;8.87;;;6.80;1.00;;;;;;5013140;28;20300;-62
2021/10/10 06:02:16;;;;;;;13.33;8.53;;;6.80;1.00;;;;;;5012997;28;20269;-62
2021/10/10 06:04:42;;;;;;;15.27;8.53;;;6.80;1.00;;;;;;5012713;28;20686;-61
2021/10/10 06:07:09;;;;;;;12.63;8.73;;;6.80;1.00;;;;;;5011909;28;20222;-61
2021/10/10 06:09:35;;;;;;;11.87;9.07;;;6.80;1.00;;;;;;5013035;28;20226;-61
2021/10/10 06:12:02;;;;;;;14.13;9.20;;;6.80;1.00;;;;;;5012972;28;20643;-60
2021/10/10 06:14:30;;;;;;;15.70;9.10;;;6.80;1.00;;;;;;5012996;28;20203;-62
2021/10/10 06:16:57;;;;;;;14.03;8.47;;;6.90;1.00;;;;;;5012929;28;20207;-61
2021/10/10 06:19:24;;;;;;;13.83;8.10;;;6.90;42.00;;;;;;5012454;28;20227;-62
2021/10/10 06:21:51;;;;;;;11.77;8.77;;;6.90;99.90;;;;;;5012920;28;20347;-62
2021/10/10 06:24:18;;;;;;;12.63;9.23;;;6.90;99.90;;;;;;5012660;28;20257;-61
2021/10/10 06:26:44;;;;;;;12.53;8.40;;;7.00;99.90;;;;;;5012362;28;20285;-61
2021/10/10 06:29:13;;;;;;;15.07;8.57;;;7.00;99.90;;;;;;5012687;28;20281;-62
2021/10/10 06:31:41;;;;;;;14.20;8.90;;;6.90;99.90;;;;;;5012754;28;20232;-62
2021/10/10 06:34:08;;;;;;;14.43;8.97;;;6.90;99.90;;;;;;5012628;28;20211;-61
2021/10/10 06:36:34;;;;;;;12.33;8.60;;;6.90;99.90;;;;;;5012377;28;20203;-62
2021/10/10 06:39:01;;;;;;;16.60;9.20;;;6.90;99.90;;;;;;5012711;28;20266;-61
2021/10/10 06:41:28;;;;;;;13.80;8.37;;;6.90;1.00;;;;;;5012516;28;20210;-61
2021/10/10 06:43:54;;;;;;;14.47;8.63;;;6.90;1.00;;;;;;5012543;28;20207;-61
2021/10/10 06:46:21;;;;;;;10.93;8.63;;;6.90;7.30;;;;;;5011934;28;20729;-61
2021/10/10 06:48:49;;;;;;;12.13;8.77;;;7.00;13.30;;;;;;5012262;28;20229;-60
2021/10/10 06:51:16;;;;;;;11.90;8.90;;;7.10;1.00;;;;;;5012440;28;20672;-62
2021/10/10 06:53:42;;;;;;;11.87;8.43;;;7.20;1.00;;;;;;5012702;28;20213;-60
2021/10/10 06:56:09;;;;;;;17.20;10.23;;;7.30;10.90;;;;;;5012167;28;20773;-58
2021/10/10 06:58:36;;;;;;;12.30;8.90;;;7.40;1.00;;;;;;5012101;28;20254;-59
2021/10/10 07:01:02;;;;;;;15.50;9.33;;;7.40;99.90;;;;;;5012255;28;20211;-60
2021/10/10 07:03:29;;;;;;;14.50;10.37;;;7.40;99.90;;;;;;5012069;28;20273;-60
2021/10/10 07:05:57;;;;;;;12.13;9.17;;;7.50;50.20;;;;;;5011710;28;20736;-61
2021/10/10 07:08:24;;;;;;;15.37;9.57;;;7.60;1.00;;;;;;5011950;28;20273;-61
2021/10/10 07:10:50;;;;;;;12.13;8.90;;;7.50;1.00;;;;;;5012323;28;20711;-60
2021/10/10 07:13:17;;;;;;;16.10;9.90;;;7.40;1.00;;;;;;5012347;28;20206;-61
2021/10/10 07:15:44;;;;;;;11.83;9.33;;;7.40;1.00;;;;;;5011967;28;20207;-61
2021/10/10 07:18:10;;;;;;;11.47;8.50;;;7.50;1.00;;;;;;5013884;28;20207;-62
2021/10/10 07:20:53;;;;;;;15.10;9.73;;;7.60;1.00;;;;;;5015916;28;20245;-59
2021/10/10 07:23:30;;;;;;;14.50;9.77;;;7.70;1.00;;;;;;5016440;28;20212;-62
2021/10/10 07:25:57;;;;;;;14.90;9.00;;;7.70;1.00;;;;;;5015896;28;20211;-62
2021/10/10 07:28:24;;;;;;;12.87;9.27;;;7.80;12.00;;;;;;5016093;28;20228;-60
2021/10/10 07:30:51;;;;;;;12.00;9.20;;;7.90;99.90;;;;;;5016114;28;20227;-62
2021/10/10 07:33:18;;;;;;;11.73;8.53;;;8.00;99.90;;;;;;5016447;28;20299;-61
2021/10/10 07:35:45;;;;;;;12.87;9.23;;;8.10;99.90;;;;;;5015635;28;20256;-62
2021/10/10 07:38:12;;;;;;;14.83;9.67;;;8.30;99.90;;;;;;5015872;28;20207;-61
2021/10/10 07:40:41;;;;;;;14.63;8.60;;;8.40;1.00;;;;;;5015863;28;20233;-61
2021/10/10 07:43:08;;;;;;;11.10;8.80;;;8.50;1.00;;;;;;5015757;28;20305;-62
2021/10/10 07:45:41;;;;;;;12.50;8.83;;;8.60;99.90;;;;;;5015640;28;20307;-62
2021/10/10 07:48:07;;;;;;;12.07;7.87;;;8.70;99.90;;;;;;5015853;28;20251;-63
2021/10/10 07:50:34;;;;;;;12.63;8.03;;;8.90;99.90;;;;;;5015776;28;20240;-62
2021/10/10 07:53:02;;;;;;;12.87;8.17;;;9.00;99.90;;;;;;5015675;28;20218;-61
2021/10/10 07:55:29;;;;;;;12.77;8.33;;;9.10;12.90;;;;;;5015009;28;20207;-61
2021/10/10 07:57:57;;;;;;;15.10;8.13;;;9.30;1.00;;;;;;5015777;28;20277;-63
2021/10/10 08:00:24;;;;;;;13.43;8.30;;;9.50;1.00;;;;;;5015196;28;20715;-62
2021/10/10 08:02:56;;;;;;;12.30;8.07;;;9.60;1.00;;;;;;5015231;28;20214;-63
2021/10/10 08:05:25;;;;;;;10.93;8.13;;;9.80;1.00;;;;;;5016657;28;20210;-62
2021/10/10 08:07:52;;;;;;;13.53;7.37;;;10.00;1.00;;;;;;5015040;28;20230;-62
2021/10/10 08:10:19;;;;;;;13.57;7.90;;;10.20;1.00;;;;;;5015208;28;20235;-62
2021/10/10 08:12:46;;;;;;;12.07;7.83;;;10.30;1.00;;;;;;5015237;28;20250;-63
2021/10/10 08:15:15;;;;;;;11.73;7.50;;;10.50;1.00;;;;;;5014511;28;20707;-62
2021/10/10 08:17:42;;;;;;;16.83;7.53;;;10.60;1.00;;;;;;5014919;28;20564;-63
2021/10/10 08:20:10;;;;;;;10.87;7.83;;;10.80;1.00;;;;;;5015527;28;20231;-62
2021/10/10 08:22:38;;;;;;;12.43;8.50;;;10.90;1.00;;;;;;5018071;28;20610;-62
2021/10/10 08:25:07;;;;;;;12.17;8.00;;;11.00;1.00;;;;;;5014061;28;20215;-63
2021/10/10 08:27:35;;;;;;;13.67;7.77;;;11.10;1.00;;;;;;5014408;28;20230;-64
2021/10/10 08:30:02;;;;;;;16.03;8.60;;;11.20;1.00;;;;;;5013510;28;20366;-64
2021/10/10 08:32:30;;;;;;;12.07;8.00;;;11.20;1.00;;;;;;5014611;28;20227;-62
2021/10/10 08:34:56;;;;;;;11.63;7.80;;;11.40;1.00;;;;;;5013809;28;20265;-62
2021/10/10 08:37:23;;;;;;;12.67;7.77;;;11.40;1.00;;;;;;5014673;28;20211;-62
2021/10/10 08:39:50;;;;;;;10.67;7.67;;;11.50;1.00;;;;;;5013892;28;20222;-61
2021/10/10 08:42:21;;;;;;;11.57;7.90;;;11.50;1.00;;;;;;5014219;28;20731;-62
2021/10/10 08:44:52;;;;;;;14.03;8.37;;;11.60;1.00;;;;;;5014048;28;20591;-62
2021/10/10 08:47:19;;;;;;;11.57;7.80;;;11.60;1.00;;;;;;5013935;28;20264;-62
2021/10/10 08:49:47;;;;;;;11.50;7.90;;;11.60;1.00;;;;;;5013937;28;20227;-61
2021/10/10 08:52:14;;;;;;;13.10;8.40;;;11.70;1.00;;;;;;5013943;28;20214;-63
2021/10/10 08:54:42;;;;;;;13.27;8.50;;;11.80;1.00;;;;;;5013839;28;20270;-63
2021/10/10 08:57:09;;;;;;;14.87;8.87;;;11.90;1.00;;;;;;5014021;28;20210;-63
2021/10/10 08:59:39;;;;;;;13.60;7.97;;;11.90;1.00;;;;;;5013241;28;20220;-63
2021/10/10 09:02:13;;;;;;;12.00;8.30;;;12.00;1.00;;;;;;5013906;28;20207;-63
2021/10/10 09:04:41;;;;;;;12.03;8.10;;;12.10;1.00;;;;;;5013782;28;20218;-63
2021/10/10 09:07:09;;;;;;;13.53;8.63;;;12.20;1.00;;;;;;5013990;28;20214;-63
2021/10/10 09:09:37;;;;;;;10.90;7.73;;;12.30;1.00;;;;;;5013754;28;20223;-62
2021/10/10 09:12:05;;;;;;;10.57;8.10;;;12.40;1.00;;;;;;5013737;28;20868;-62
2021/10/10 09:14:42;;;;;;;12.93;7.77;;;12.50;1.00;;;;;;5013412;28;20210;-60
2021/10/10 09:17:11;;;;;;;13.17;7.70;;;12.60;1.00;;;;;;5013679;28;20208;-64
2021/10/10 09:19:38;;;;;;;11.47;8.27;;;12.70;1.00;;;;;;5013314;28;20324;-64
2021/10/10 09:22:07;;;;;;;11.57;7.30;;;12.70;1.00;;;;;;5013511;28;20702;-63
2021/10/10 09:24:35;;;;;;;15.37;7.97;;;12.60;1.00;;;;;;5013411;28;20230;-62
2021/10/10 09:27:05;;;;;;;14.57;8.07;;;12.70;1.00;;;;;;5013466;28;20261;-62
2021/10/10 09:29:33;;;;;;;13.07;8.10;;;12.90;1.00;;;;;;5013239;28;20238;-62
2021/10/10 09:32:09;;;;;;;12.73;7.57;;;13.00;1.00;;;;;;5012452;28;20218;-64
2021/10/10 09:34:36;;;;;;;13.37;8.23;;;13.20;1.00;;;;;;5013031;28;20268;-63
2021/10/10 09:37:09;;;;;;;10.90;7.60;;;13.20;1.00;;;;;;5013520;28;20216;-63
2021/10/10 09:39:39;;;;;;;12.23;7.80;;;13.40;1.00;;;;;;5012297;28;20235;-64
2021/10/10 09:42:06;;;;;;;12.53;9.23;;;13.50;1.00;;;;;;5012414;28;20234;-65
2021/10/10 09:44:46;;;;;;;14.87;8.27;;;13.60;1.00;;;;;;5012645;28;20309;-65
2021/10/10 09:47:13;;;;;;;12.57;7.50;;;13.60;1.00;;;;;;5013196;28;20215;-66
2021/10/10 09:49:40;;;;;;;13.47;8.17;;;13.80;1.00;;;;;;5012994;28;20249;-67
2021/10/10 09:52:15;;;;;;;11.43;7.53;;;14.00;1.00;;;;;;5013201;28;20582;-67
2021/10/10 09:54:50;;;;;;;10.70;7.53;;;14.20;1.00;;;;;;5012892;28;20705;-63
2021/10/10 09:57:18;;;;;;;11.17;7.90;;;14.30;1.00;;;;;;5013101;28;20238;-62
2021/10/10 09:59:44;;;;;;;9.93;7.40;;;14.50;99.90;;;;;;5012755;28;20226;-59
2021/10/10 10:02:11;;;;;;;12.63;7.53;;;14.50;1.00;;;;;;5013228;28;20214;-63
2021/10/10 10:04:49;;;;;;;9.17;6.87;;;14.70;99.90;;;;;;5012533;28;20706;-62
2021/10/10 10:07:16;;;;;;;12.50;7.30;;;14.80;99.90;;;;;;5012992;28;20214;-63
2021/10/10 10:09:49;;;;;;;12.30;7.20;;;14.70;99.90;;;;;;5011796;28;20261;-62
2021/10/10 10:12:18;;;;;;;9.37;6.93;;;14.90;99.90;;;;;;5012989;28;20210;-63
2021/10/10 10:14:49;;;;;;;10.43;6.87;;;14.90;99.90;;;;;;5012377;28;20302;-66
2021/10/10 10:17:17;;;;;;;11.13;8.07;;;15.00;99.90;;;;;;5012392;28;20211;-66
2021/10/10 10:19:44;;;;;;;14.43;7.83;;;15.10;99.90;;;;;;5012539;28;20231;-64
2021/10/10 10:22:13;;;;;;;11.23;7.63;;;15.10;99.90;;;;;;5012651;28;20588;-64
2021/10/10 10:24:45;;;;;;;14.63;7.60;;;15.20;99.90;;;;;;5012419;28;20379;-64
2021/10/10 10:27:11;;;;;;;20.00;8.10;;;15.20;99.90;;;;;;5012629;28;20207;-63
2021/10/10 10:29:41;;;;;;;12.43;7.87;;;14.90;99.90;;;;;;5011737;28;20708;-63
2021/10/10 10:32:09;;;;;;;13.33;7.40;;;14.90;99.90;;;;;;5012497;28;20757;-64
2021/10/10 10:34:36;;;;;;;13.53;7.07;;;15.00;99.90;;;;;;5012214;28;20780;-67
2021/10/10 10:37:04;;;;;;;12.60;7.20;;;15.10;99.90;;;;;;5011931;28;20668;-66
2021/10/10 10:39:43;;;;;;;12.03;7.63;;;15.40;99.90;;;;;;5011906;28;20226;-67
2021/10/10 10:42:11;;;;;;;10.77;6.90;;;15.50;99.90;;;;;;5012205;28;20672;-67
2021/10/10 10:44:41;;;;;;;13.37;7.37;;;15.50;99.90;;;;;;5012125;28;20218;-68
2021/10/10 10:47:10;;;;;;;11.70;7.70;;;15.60;99.90;;;;;;5012572;28;20197;-66
2021/10/10 10:50:05;;;;;;;10.90;7.60;;;15.50;99.90;;;;;;5011815;28;20234;-70
2021/10/10 10:53:03;;;;;;;10.27;7.80;;;15.60;99.90;;;;;;5011960;28;20218;-69
2021/10/10 10:55:32;;;;;;;13.93;7.90;;;15.70;99.90;;;;;;5011699;28;20203;-70
2021/10/10 10:58:01;;;;;;;12.90;7.70;;;15.90;99.90;;;;;;5012009;28;20207;-65
2021/10/10 11:00:32;;;;;;;11.03;8.00;;;16.00;99.90;;;;;;5011571;28;20601;-66
2021/10/10 11:03:19;;;;;;;12.70;8.40;;;16.20;99.90;;;;;;5011863;28;20573;-66
2021/10/10 11:05:52;;;;;;;12.77;7.80;;;16.20;99.90;;;;;;5011778;28;20214;-64
2021/10/10 11:08:36;;;;;;;12.83;7.60;;;16.00;99.90;;;;;;5012038;28;20226;-66
2021/10/10 11:11:20;;;;;;;13.73;8.33;;;16.00;99.90;;;;;;5423249;22;20234;-65
2021/10/10 11:13:52;;;;;;;14.10;7.37;;;16.10;99.90;;;;;;5051784;28;20209;-66
2021/10/10 11:16:22;;;;;;;11.00;7.10;;;16.20;99.90;;;;;;5051097;28;20205;-67
2021/10/10 11:18:52;;;;;;;13.10;7.40;;;16.20;99.90;;;;;;5052882;28;20279;-66
2021/10/10 11:21:20;;;;;;;9.53;6.57;;;16.20;99.90;;;;;;5071464;28;20265;-67
2021/10/10 11:23:53;;;;;;;9.70;6.57;;;16.30;99.90;;;;;;5071517;28;20204;-67
2021/10/10 11:26:21;;;;;;;10.30;6.63;;;16.50;99.90;;;;;;5071284;28;20209;-67
2021/10/10 11:28:51;;;;;;;10.70;6.90;;;16.40;99.90;;;;;;5071461;28;20203;-67
2021/10/10 11:31:22;;;;;;;9.83;6.90;;;16.30;99.90;;;;;;5071297;28;20204;-68
2021/10/10 11:33:55;;;;;;;14.27;7.20;;;16.20;99.90;;;;;;5071914;28;20197;-66
2021/10/10 11:36:32;;;;;;;8.93;7.00;;;16.30;99.90;;;;;;5070917;28;20239;-67
2021/10/10 11:38:59;;;;;;;11.47;7.17;;;16.40;99.90;;;;;;5071258;28;20232;-67
2021/10/10 11:41:28;;;;;;;12.20;7.50;;;16.50;99.90;;;;;;5071479;28;20555;-67
2021/10/10 11:44:00;;;;;;;9.73;7.30;;;16.50;99.90;;;;;;5071125;28;20683;-67
2021/10/10 11:46:38;;;;;;;13.70;7.13;;;16.40;99.90;;;;;;5071208;28;20255;-67
2021/10/10 11:49:28;;;;;;;11.20;7.37;;;16.50;99.90;;;;;;5071377;28;20705;-67
2021/10/10 11:51:56;;;;;;;8.90;6.90;;;16.60;99.90;;;;;;5071252;28;20230;-67
2021/10/10 11:54:28;;;;;;;13.60;6.57;;;16.30;99.90;;;;;;5071160;28;20850;-67
2021/10/10 11:56:58;;;;;;;8.33;6.13;;;16.40;99.90;;;;;;5071187;28;20586;-66
2021/10/10 11:59:26;;;;;;;9.80;6.00;;;16.40;99.90;;;;;;5070572;28;20236;-66
2021/10/10 12:01:55;;;;;;;9.50;5.53;;;16.40;99.90;;;;;;5071136;28;20216;-66
2021/10/10 12:04:23;;;;;;;12.67;6.53;;;16.30;99.90;;;;;;5071446;28;20209;-67
2021/10/10 12:06:51;;;;;;;11.27;6.37;;;16.40;99.90;;;;;;5074538;28;20201;-67
2021/10/10 12:09:18;;;;;;;9.70;6.13;;;16.40;99.90;;;;;;5074859;28;20225;-67
2021/10/10 12:12:04;;;;;;;16.00;7.20;;;16.40;99.90;;;;;;5074628;28;20270;-66
2021/10/10 12:14:41;;;;;;;9.30;6.23;;;16.40;99.90;;;;;;5074418;28;20292;-66
2021/10/10 12:17:09;;;;;;;11.27;6.83;;;16.40;99.90;;;;;;5074886;28;20208;-66
2021/10/10 12:19:42;;;;;;;10.00;6.63;;;16.40;99.90;;;;;;5073563;28;20237;-65
2021/10/10 12:22:09;;;;;;;11.27;6.50;;;16.40;99.90;;;;;;5074283;28;20295;-66
2021/10/10 12:24:43;;;;;;;9.87;7.10;;;16.60;99.90;;;;;;5074307;28;20562;-66
2021/10/10 12:27:10;;;;;;;12.77;6.17;;;16.60;99.90;;;;;;5074629;28;20211;-66
2021/10/10 12:29:44;;;;;;;12.17;6.93;;;16.70;99.90;;;;;;5074024;28;20232;-66
2021/10/10 12:32:20;;;;;;;11.40;6.93;;;16.80;99.90;;;;;;5074393;28;20209;-65
2021/10/10 12:34:48;;;;;;;10.70;7.30;;;16.80;99.90;;;;;;5073666;28;20722;-65
2021/10/10 12:37:19;;;;;;;11.77;6.80;;;16.90;99.90;;;;;;5074236;28;20213;-65
2021/10/10 12:39:47;;;;;;;9.40;6.70;;;16.80;99.90;;;;;;5073459;28;20315;-61
2021/10/10 12:42:17;;;;;;;9.80;6.70;;;16.90;99.90;;;;;;5074039;28;20205;-64
2021/10/10 12:45:04;;;;;;;12.70;7.50;;;16.90;99.90;;;;;;5073681;28;20215;-62
2021/10/10 12:47:32;;;;;;;9.40;6.40;;;16.90;99.90;;;;;;5074204;28;20239;-61
2021/10/10 12:49:59;;;;;;;11.63;6.73;;;17.00;99.90;;;;;;5073844;28;20225;-59
2021/10/10 12:52:36;;;;;;;8.63;7.07;;;16.90;99.90;;;;;;5074165;28;20217;-61
2021/10/10 12:55:05;;;;;;;13.57;8.53;;;17.00;99.90;;;;;;5073614;28;20208;-62
2021/10/10 12:57:31;;;;;;;13.70;7.80;;;17.00;99.90;;;;;;5073636;28;20677;-62